Time;durP1;ratioP1;P1;durP2;ratioP2;P2;SDS_P1;SDS_P2;PMS_P1;PMS_P2;Temp;Humidity;BMP_temperature;BMP_pressure;BME280_temperature;BME280_humidity;BME280_pressure;Samples;Min_cycle;Max_cycle;Signal;HPM_P1;HPM_P2
2021/07/05 01:43:47;;;;;;;;;;;;;;;;;;;;;
2021/07/05 01:46:55;;;;;;;;;;;;;;;;;;;;;
2021/07/05 01:50:12;;;;;;;0.20;0.20;;;;;;;14.37;55.99;92297.78;6185706;23;20079;-91
2021/07/05 02:01:13;;;;;;;;;;;;;;;;;;;;;
2021/07/05 02:08:19;;;;;;;0.20;0.20;;;;;;;14.78;52.74;92304.34;6155514;23;20021;-93
2021/07/05 02:11:51;;;;;;;0.20;0.20;;;;;;;14.95;52.57;92321.16;6102225;23;20013;-91
2021/07/05 02:14:43;;;;;;;0.17;0.17;;;;;;;15.01;50.98;92314.63;6125216;23;20046;-92
2021/07/05 02:17:22;;;;;;;0.10;0.10;;;;;;;15.03;51.98;92309.06;6086616;23;20028;-91
2021/07/05 02:22:03;;;;;;;0.15;0.15;;;;;;;15.07;52.63;92317.88;6138622;23;20484;-92
2021/07/05 02:28:49;;;;;;;0.20;0.20;;;;;;;15.07;51.71;92313.38;6156323;23;20021;-94
2021/07/05 02:36:06;;;;;;;;;;;;;;;;;;;;;
2021/07/05 02:39:13;;;;;;;0.20;0.20;;;;;;;15.00;51.34;92284.09;6155891;23;20409;-90
2021/07/05 07:29:27;;;;;;;0.20;0.20;;;;;;;21.03;57.21;92348.66;6310003;22;20484;-88
2021/07/05 07:31:59;;;;;;;0.32;0.30;;;;;;;19.89;59.60;92337.34;6287662;22;20015;-89
2021/07/05 07:34:25;;;;;;;0.20;0.20;;;;;;;20.22;58.85;92341.44;6287267;22;20447;-88
2021/07/05 07:37:09;;;;;;;0.20;0.20;;;;;;;20.25;57.48;92354.81;6316942;22;20521;-89
2021/07/05 07:39:56;;;;;;;0.10;0.10;;;;;;;20.47;57.04;92349.91;6289759;22;20098;-89
2021/07/05 07:42:54;;;;;;;;;;;;;;;;;;;;;
2021/07/05 07:45:53;;;;;;;0.20;0.20;;;;;;;20.48;60.05;92354.09;6323378;22;20026;-89
2021/07/05 07:48:42;;;;;;;0.20;0.20;;;;;;;19.81;61.48;92354.25;6271344;22;20453;-88
2021/07/05 07:51:39;;;;;;;0.13;0.13;;;;;;;19.77;60.73;92354.19;6268283;22;20023;-89
2021/07/05 07:54:36;;;;;;;0.13;0.13;;;;;;;19.23;59.78;92368.84;6290930;22;20034;-89
2021/07/05 07:57:43;;;;;;;0.10;0.10;;;;;;;19.09;59.30;92358.66;6320268;22;20026;-88
2021/07/05 08:00:32;;;;;;;;;;;;;;;;;;;;;
2021/07/05 08:06:09;;;;;;;0.20;0.20;;;;;;;19.47;57.95;92349.31;6328215;22;20015;-95
2021/07/05 08:08:50;;;;;;;0.15;0.15;;;;;;;19.52;56.27;92348.25;6339801;22;20011;-94
2021/07/05 08:11:35;;;;;;;;;;;;;;;;;;;;;
2021/07/05 08:14:26;;;;;;;;;;;;;;;19.81;58.85;92359.56;6340256;22;20074;-95
2021/07/05 08:17:18;;;;;;;0.20;0.20;;;;;;;20.12;56.14;92369.34;6315422;22;19899;-90
2021/07/05 08:20:22;;;;;;;;;;;;;;;;;;;;;
2021/07/05 08:23:21;;;;;;;;;;;;;;;20.03;50.11;92377.50;6365666;22;20007;-95
2021/07/05 08:26:21;;;;;;;0.20;0.20;;;;;;;20.05;45.63;92371.84;6341062;22;19902;-95
2021/07/05 08:28:48;;;;;;;0.10;0.10;;;;;;;20.10;47.69;92367.00;6316611;22;20026;-94
2021/07/05 08:31:52;;;;;;;;;;;;;;;;;;;;;
2021/07/05 08:34:44;;;;;;;0.40;0.32;;;;;;;20.74;44.75;92374.78;6326942;22;20023;-90
2021/07/05 08:37:28;;;;;;;0.10;0.10;;;;;;;20.78;45.77;92373.72;6301768;22;20029;-89
2021/07/05 08:40:07;;;;;;;0.10;0.10;;;;;;;21.04;47.10;92390.13;6266739;22;20041;-90
2021/07/05 08:43:02;;;;;;;0.20;0.20;;;;;;;20.98;43.71;92384.31;6287620;22;20043;-89
2021/07/05 08:46:20;;;;;;;;;;;;;;;;;;;;;
2021/07/05 08:49:13;;;;;;;;;;;;;;;;;;;;;
2021/07/05 09:04:57;;;;;;;;;;;;;;;;;;;;;
2021/07/05 09:12:24;;;;;;;0.10;0.10;;;;;;;21.27;55.59;92406.09;6220453;22;20023;-91
2021/07/05 09:19:34;;;;;;;0.20;0.20;;;;;;;21.45;52.66;92398.44;6220118;22;20119;-91
2021/07/05 09:35:08;;;;;;;;;;;;;;;;;;;;;
2021/07/05 09:38:52;;;;;;;0.20;0.20;;;;;;;22.43;50.41;92380.84;6086963;23;20105;-92
2021/07/05 09:41:29;;;;;;;0.25;0.20;;;;;;;21.61;51.65;92391.09;6191115;23;20024;-91
2021/07/05 09:44:25;;;;;;;0.17;0.17;;;;;;;22.09;49.44;92394.09;6194230;23;20427;-92
2021/07/05 09:47:24;;;;;;;;;;;;;;;;;;;;;
2021/07/05 09:50:45;;;;;;;;;;;;;;;;;;;;;
2021/07/05 09:53:30;;;;;;;0.10;0.10;;;;;;;22.25;49.70;92393.97;6217182;23;20104;-93
2021/07/05 09:56:43;;;;;;;0.10;0.10;;;;;;;21.67;49.47;92395.00;6218635;23;20089;-92
2021/07/05 09:59:36;;;;;;;0.13;0.13;;;;;;;22.10;48.79;92400.94;6273620;22;20403;-92
2021/07/05 10:02:17;;;;;;;0.20;0.20;;;;;;;21.69;51.95;92402.63;6311261;22;20034;-92
2021/07/05 10:07:40;;;;;;;0.10;0.10;;;;;;;21.32;51.57;92401.28;6310974;22;20007;-92
2021/07/05 10:10:26;;;;;;;0.13;0.13;;;;;;;21.46;51.21;92402.63;6288676;22;20133;-92
2021/07/05 10:13:17;;;;;;;0.40;0.40;;;;;;;21.79;51.05;92418.75;6286139;22;20090;-91
2021/07/05 10:16:26;;;;;;;0.35;0.25;;;;;;;21.86;50.48;92423.44;6288474;22;20474;-91
2021/07/05 10:19:07;;;;;;;0.10;0.10;;;;;;;22.00;48.48;92417.56;6274168;22;20388;-91
2021/07/05 10:22:20;;;;;;;0.38;0.32;;;;;;;22.19;48.52;92414.03;6284637;22;20020;-92
2021/07/05 10:25:16;;;;;;;0.20;0.20;;;;;;;21.71;49.85;92401.16;6307258;22;20456;-93
2021/07/05 10:27:54;;;;;;;0.10;0.10;;;;;;;21.61;50.52;92407.06;6286503;22;20011;-92
2021/07/05 10:30:32;;;;;;;0.30;0.30;;;;;;;21.85;51.38;92411.25;6261433;22;20007;-91
2021/07/05 10:42:03;;;;;;;0.20;0.20;;;;;;;23.46;48.31;92413.25;6161546;23;20052;-92
2021/07/05 10:44:45;;;;;;;0.10;0.10;;;;;;;23.59;46.26;92402.25;6105829;23;20037;-92
2021/07/05 11:20:17;;;;;;;0.22;0.22;;;;;;;23.38;39.19;92410.88;6212884;23;20096;-94
2021/07/05 11:23:53;;;;;;;;;;;;;;;;;;;;;
2021/07/05 11:30:56;;;;;;;9.05;0.50;;;;;;;23.66;39.18;92413.78;6279887;22;20019;-94
2021/07/05 11:53:46;;;;;;;0.20;0.20;;;;;;;24.12;41.31;92403.84;6136680;23;20084;-96
2021/07/05 12:00:50;;;;;;;;;;;;;;;;;;;;;
2021/07/05 12:04:10;;;;;;;;;;;;;;;;;;;;;
2021/07/05 18:24:16;;;;;;;0.20;0.20;;;;;;;21.89;50.54;92459.28;6276509;22;20023;-78
2021/07/05 18:26:47;;;;;;;0.10;0.10;;;;;;;21.75;50.92;92465.91;6307412;22;20021;-78
2021/07/05 18:29:13;;;;;;;0.30;0.30;;;;;;;21.61;51.62;92461.09;6335237;22;20106;-77
2021/07/05 18:31:39;;;;;;;0.20;0.20;;;;;;;21.52;51.42;92462.47;6305551;22;20522;-78
2021/07/05 18:34:05;;;;;;;0.17;0.17;;;;;;;21.42;51.64;92464.59;6308725;22;20022;-78
2021/07/05 18:36:31;;;;;;;0.80;0.45;;;;;;;21.35;52.33;92467.09;6307927;22;20372;-77
2021/07/05 18:38:57;;;;;;;0.22;0.22;;;;;;;21.27;51.95;92467.31;6337127;22;20438;-78
2021/07/05 18:41:22;;;;;;;0.90;0.57;;;;;;;21.13;51.75;92460.63;6335640;22;20128;-77
2021/07/05 18:43:48;;;;;;;0.35;0.35;;;;;;;21.12;52.24;92458.31;6336090;22;20087;-77
2021/07/05 18:46:14;;;;;;;0.57;0.43;;;;;;;21.03;52.23;92457.75;6283687;22;20411;-77
2021/07/05 18:48:41;;;;;;;0.10;0.10;;;;;;;20.95;52.22;92470.94;6309932;22;20034;-78
2021/07/05 18:51:07;;;;;;;0.43;0.40;;;;;;;20.86;52.00;92467.72;6310115;22;20086;-78
2021/07/05 18:53:33;;;;;;;0.20;0.20;;;;;;;20.79;51.94;92472.91;6310589;22;20010;-77
2021/07/05 18:55:59;;;;;;;0.10;0.10;;;;;;;20.69;52.16;92465.47;6309735;22;20017;-77
2021/07/05 18:58:26;;;;;;;0.63;0.40;;;;;;;20.59;52.29;92474.78;6335789;22;20021;-77
2021/07/05 19:00:52;;;;;;;0.20;0.20;;;;;;;20.52;52.01;92475.34;6335143;22;20439;-77
2021/07/05 19:03:18;;;;;;;0.80;0.40;;;;;;;20.46;52.20;92474.09;6335119;22;20522;-77
2021/07/05 19:05:44;;;;;;;0.60;0.47;;;;;;;20.38;52.94;92477.72;6308130;22;20025;-77
2021/07/05 19:08:10;;;;;;;0.25;0.25;;;;;;;20.26;53.26;92475.94;6335192;22;20412;-77
2021/07/05 19:10:35;;;;;;;0.45;0.43;;;;;;;20.18;53.41;92476.91;6306779;22;20011;-77
2021/07/05 19:13:01;;;;;;;0.20;0.20;;;;;;;20.11;53.18;92485.47;6333694;22;20002;-77
2021/07/05 19:15:27;;;;;;;0.25;0.25;;;;;;;20.00;53.35;92487.13;6335114;22;20072;-77
2021/07/05 19:17:53;;;;;;;0.10;0.10;;;;;;;19.94;53.09;92497.22;6334816;22;20041;-77
2021/07/05 19:20:20;;;;;;;0.10;0.10;;;;;;;19.89;53.27;92507.34;6279929;22;20010;-77
2021/07/05 19:22:46;;;;;;;0.10;0.10;;;;;;;19.84;53.13;92505.72;6334788;22;20015;-77
2021/07/05 19:25:14;;;;;;;0.22;0.20;;;;;;;19.73;53.41;92494.84;6307382;22;20017;-77
2021/07/05 19:27:43;;;;;;;0.20;0.20;;;;;;;19.72;53.56;92509.25;6335153;22;20014;-77
2021/07/05 19:30:09;;;;;;;0.28;0.25;;;;;;;19.66;53.45;92510.56;6333931;22;20015;-77
2021/07/05 19:32:35;;;;;;;0.17;0.17;;;;;;;19.62;53.36;92515.03;6308131;22;20042;-77
2021/07/05 19:35:01;;;;;;;0.10;0.10;;;;;;;19.58;53.53;92521.34;6335436;22;20430;-77
2021/07/05 19:37:27;;;;;;;0.20;0.20;;;;;;;19.53;53.73;92523.13;6307186;22;20015;-77
2021/07/05 19:39:52;;;;;;;0.30;0.30;;;;;;;19.49;53.70;92527.59;6333931;22;20123;-77
2021/07/05 19:42:18;;;;;;;0.55;0.20;;;;;;;19.43;53.83;92531.63;6335441;22;20011;-76
2021/07/05 19:44:44;;;;;;;0.30;0.30;;;;;;;19.37;53.62;92530.31;6335377;22;20430;-77
2021/07/05 19:47:11;;;;;;;0.10;0.10;;;;;;;19.34;53.64;92545.03;6334498;22;20010;-77
2021/07/05 19:49:37;;;;;;;0.45;0.43;;;;;;;19.29;53.69;92541.84;6307862;22;20015;-77
2021/07/05 19:52:03;;;;;;;0.10;0.10;;;;;;;19.24;53.72;92540.19;6307582;22;20387;-77
2021/07/05 19:54:29;;;;;;;0.35;0.20;;;;;;;19.19;54.06;92543.09;6308145;22;20067;-77
2021/07/05 19:56:54;;;;;;;0.10;0.10;;;;;;;19.15;53.98;92544.88;6335529;22;20017;-77
2021/07/05 19:59:20;;;;;;;0.20;0.20;;;;;;;19.10;54.11;92553.09;6307693;22;20007;-77
2021/07/05 20:01:46;;;;;;;0.20;0.20;;;;;;;19.07;54.18;92551.88;6307407;22;20025;-77
2021/07/05 20:04:11;;;;;;;0.10;0.10;;;;;;;19.00;54.35;92551.66;6335520;22;20430;-77
2021/07/05 20:06:37;;;;;;;0.20;0.20;;;;;;;18.97;54.36;92560.31;6307801;22;20501;-77
2021/07/05 20:09:04;;;;;;;0.15;0.15;;;;;;;18.92;54.51;92557.91;6309086;22;20015;-77
2021/07/05 20:11:29;;;;;;;0.73;0.45;;;;;;;18.88;54.58;92559.66;6337113;22;19998;-77
2021/07/05 20:13:55;;;;;;;0.10;0.10;;;;;;;18.84;54.77;92564.84;6336290;22;20350;-77
2021/07/05 20:16:21;;;;;;;0.17;0.17;;;;;;;18.78;54.77;92566.22;6308316;22;20380;-76
2021/07/05 20:18:48;;;;;;;0.25;0.20;;;;;;;18.76;54.92;92565.75;6309304;22;20014;-78
2021/07/05 20:24:36;;;;;;;0.13;0.13;;;;;;;18.69;55.28;92562.91;6334504;22;20018;-78
2021/07/05 20:27:02;;;;;;;0.20;0.20;;;;;;;18.62;55.26;92565.31;6340511;22;20052;-78
2021/07/05 20:32:49;;;;;;;0.10;0.10;;;;;;;18.54;55.48;92566.22;6341032;22;20011;-78
2021/07/05 20:39:12;;;;;;;0.52;0.52;;;;;;;18.52;55.81;92580.56;6342082;22;20108;-78
2021/07/05 20:41:37;;;;;;;0.25;0.13;;;;;;;18.49;55.46;92572.53;6314968;22;20014;-78
2021/07/05 20:47:59;;;;;;;0.17;0.17;;;;;;;18.40;55.62;92580.59;6343091;22;20063;-79
2021/07/05 20:50:27;;;;;;;0.10;0.10;;;;;;;18.37;55.88;92580.47;6289494;22;20011;-79
2021/07/05 20:53:16;;;;;;;0.30;0.30;;;;;;;18.35;55.69;92590.63;6342123;22;20021;-79
2021/07/05 20:55:41;;;;;;;0.10;0.10;;;;;;;18.30;56.00;92595.03;6314468;22;20056;-78
2021/07/05 20:58:08;;;;;;;0.47;0.20;;;;;;;18.28;55.98;92596.47;6288635;22;20014;-79
2021/07/05 21:00:37;;;;;;;0.10;0.10;;;;;;;17.87;56.01;92539.94;6339609;22;20398;-92
2021/07/05 21:03:51;;;;;;;0.38;0.38;;;;;;;18.10;56.11;92580.81;6314871;22;20303;-92
2021/07/05 21:06:29;;;;;;;0.38;0.38;;;;;;;17.92;56.11;92558.25;6290765;22;20011;-92
2021/07/05 21:09:00;;;;;;;0.15;0.15;;;;;;;17.86;56.10;92551.66;6312006;22;20039;-92
2021/07/05 21:14:15;;;;;;;0.15;0.15;;;;;;;17.76;56.39;92544.09;6280135;22;20086;-92
2021/07/05 21:16:48;;;;;;;0.75;0.50;;;;;;;17.78;56.16;92558.53;6312495;22;20471;-93
2021/07/05 21:19:24;;;;;;;0.10;0.10;;;;;;;17.74;56.31;92555.00;6261805;22;20022;-91
2021/07/05 21:22:12;;;;;;;;;;;;;;;;;;;;;
2021/07/05 21:25:06;;;;;;;0.32;0.28;;;;;;;17.67;56.58;92552.13;6339980;22;20086;-93
2021/07/05 21:27:41;;;;;;;0.20;0.20;;;;;;;17.76;56.47;92565.28;6263123;22;20457;-92
2021/07/05 21:30:16;;;;;;;0.22;0.22;;;;;;;17.79;56.41;92580.53;6281402;22;20011;-92
2021/07/05 21:32:48;;;;;;;0.20;0.20;;;;;;;17.62;56.64;92560.28;6311304;22;20040;-92
2021/07/05 21:35:26;;;;;;;0.43;0.40;;;;;;;17.62;56.63;92561.03;6262016;22;20022;-92
2021/07/05 21:37:54;;;;;;;0.10;0.10;;;;;;;17.56;56.76;92557.09;6287024;22;20019;-92
2021/07/05 21:40:38;;;;;;;0.47;0.20;;;;;;;17.69;56.62;92573.75;6338174;22;20158;-92
2021/07/05 21:43:22;;;;;;;;;;;;;;;;;;;;;
2021/07/05 21:46:01;;;;;;;0.25;0.25;;;;;;;17.50;56.79;92547.03;6316461;22;20078;-93
2021/07/05 21:48:42;;;;;;;0.17;0.17;;;;;;;17.51;56.68;92548.56;6313386;22;20082;-92
2021/07/05 21:51:20;;;;;;;0.20;0.20;;;;;;;17.62;56.69;92566.34;6287056;22;20011;-94
2021/07/05 21:53:52;;;;;;;0.52;0.30;;;;;;;17.61;56.88;92566.69;6263485;22;20041;-93
2021/07/05 21:56:40;;;;;;;0.10;0.10;;;;;;;17.42;56.92;92543.34;6339252;22;20085;-92
2021/07/05 21:59:18;;;;;;;0.10;0.10;;;;;;;17.43;56.96;92555.50;6286346;22;20441;-93
2021/07/05 22:02:08;;;;;;;0.40;0.30;;;;;;;17.31;56.98;92542.22;6285079;22;20007;-92
2021/07/05 22:04:38;;;;;;;0.10;0.10;;;;;;;17.36;56.92;92556.03;6312085;22;20029;-92
2021/07/05 22:07:31;;;;;;;0.15;0.15;;;;;;;17.38;57.00;92558.34;6273368;22;20305;-92
2021/07/05 22:10:07;;;;;;;0.38;0.38;;;;;;;17.29;57.14;92550.47;6286346;22;20022;-92
2021/07/05 22:12:48;;;;;;;0.20;0.20;;;;;;;17.29;57.26;92553.13;6260151;22;20022;-92
2021/07/05 22:15:45;;;;;;;1.25;0.50;;;;;;;17.23;57.15;92552.56;6238735;22;20094;-92
2021/07/05 22:18:15;;;;;;;0.17;0.17;;;;;;;17.26;57.21;92556.44;6285823;22;20050;-91
2021/07/05 22:20:43;;;;;;;0.10;0.10;;;;;;;17.39;57.11;92583.72;6260942;22;20023;-94
2021/07/05 22:23:09;;;;;;;0.10;0.10;;;;;;;17.37;57.08;92575.31;6311586;22;20338;-93
2021/07/05 22:25:40;;;;;;;1.15;0.52;;;;;;;17.31;57.31;92577.38;6285419;22;20007;-92
2021/07/05 22:28:11;;;;;;;0.20;0.20;;;;;;;17.35;57.13;92588.09;6261283;22;20018;-92
2021/07/05 22:31:14;;;;;;;;;;;;;;;;;;;;;
2021/07/05 22:34:20;;;;;;;;;;;;;;;;;;;;;
2021/07/05 22:37:02;;;;;;;0.32;0.32;;;;;;;17.45;57.52;92608.84;6291178;22;20030;-91
2021/07/05 22:40:12;;;;;;;0.10;0.10;;;;;;;17.14;57.39;92567.75;6285270;22;20372;-93
2021/07/05 22:43:03;;;;;;;0.13;0.13;;;;;;;17.06;57.51;92558.75;6285307;22;20015;-92
2021/07/05 22:45:34;;;;;;;0.20;0.20;;;;;;;17.39;57.57;92607.53;6311764;22;20221;-94
2021/07/05 22:48:13;;;;;;;0.20;0.20;;;;;;;17.23;58.07;92592.25;6262151;22;20006;-92
2021/07/05 22:50:52;;;;;;;0.52;0.43;;;;;;;16.98;58.22;92554.34;6285878;22;20028;-92
2021/07/05 22:53:49;;;;;;;0.10;0.10;;;;;;;17.21;58.22;92594.44;6313448;22;20563;-92
2021/07/05 22:56:29;;;;;;;0.13;0.13;;;;;;;17.24;58.12;92601.72;6288257;22;20472;-93
2021/07/05 22:59:07;;;;;;;0.57;0.50;;;;;;;17.22;58.01;92587.25;6273818;22;20030;-92
2021/07/05 23:01:39;;;;;;;0.10;0.10;;;;;;;17.19;58.21;92595.84;6284167;22;20333;-93
2021/07/05 23:06:59;;;;;;;0.52;0.45;;;;;;;17.25;58.58;92605.91;6289434;22;20019;-93
2021/07/05 23:09:43;;;;;;;0.47;0.40;;;;;;;16.94;58.90;92569.28;6287206;22;20014;-93
2021/07/05 23:12:14;;;;;;;0.30;0.30;;;;;;;17.17;58.44;92604.09;6258282;22;20299;-92
2021/07/05 23:15:09;;;;;;;0.17;0.17;;;;;;;16.92;58.62;92565.44;6294248;22;20105;-93
2021/07/05 23:17:56;;;;;;;0.20;0.20;;;;;;;16.99;58.93;92571.75;6285358;22;20019;-92
2021/07/05 23:20:44;;;;;;;0.20;0.20;;;;;;;17.26;58.53;92611.97;6284832;22;20024;-92
2021/07/05 23:23:26;;;;;;;0.30;0.30;;;;;;;17.15;58.83;92579.84;6292152;22;20082;-93
2021/07/05 23:26:24;;;;;;;0.17;0.17;;;;;;;17.06;58.81;92572.00;6338788;22;20022;-93
2021/07/05 23:29:07;;;;;;;0.35;0.30;;;;;;;17.24;58.60;92587.72;6285594;22;20090;-92
2021/07/05 23:31:58;;;;;;;;;;;;;;;;;;;;;
2021/07/05 23:34:31;;;;;;;0.80;0.52;;;;;;;17.05;59.04;92572.31;6288016;22;20023;-92
2021/07/05 23:37:00;;;;;;;0.10;0.10;;;;;;;17.03;59.16;92571.88;6310204;22;20023;-92
2021/07/05 23:39:42;;;;;;;0.10;0.10;;;;;;;17.00;59.19;92569.84;6286122;22;20085;-92
2021/07/05 23:42:21;;;;;;;;;;;;;;;;;;;;;
2021/07/05 23:44:58;;;;;;;0.55;0.50;;;;;;;17.03;59.41;92579.81;6288486;22;20031;-93
2021/07/05 23:47:33;;;;;;;0.20;0.20;;;;;;;16.88;59.51;92559.25;6264277;22;20018;-93
2021/07/05 23:50:15;;;;;;;0.55;0.38;;;;;;;16.86;59.57;92559.56;6288202;22;20026;-93
2021/07/05 23:52:47;;;;;;;0.10;0.10;;;;;;;16.97;59.54;92579.22;6288262;22;20011;-93
2021/07/05 23:55:25;;;;;;;0.20;0.20;;;;;;;16.85;59.74;92565.94;6311854;22;20091;-94
2021/07/05 23:58:03;;;;;;;;;;;;;;;;;;;;;
